This is the latest recevied weather packets stored in our database for station/object SR6WXJG. If no packets are shown the sender has not sent any weather packets the latest 10 day(s).
| Time | Temp. | Humidity | Pressure | Rain* | Wind** | Luminosity | Snow |
|---|---|---|---|---|---|---|---|
| 1777528966 | 4.44° C | 57% | 1033 hPa | 0 mm | - | - | - |
| 1777528066 | 3.89° C | 58% | 1033 hPa | 0 mm | - | - | - |
| 1777527165 | 3.89° C | 59% | 1033 hPa | 0 mm | - | - | - |
| 1777526265 | 1.11° C | 65% | 1032 hPa | 0 mm | - | - | - |
| 1777525365 | 1.11° C | 64% | 1033 hPa | 0 mm | - | - | - |
| 1777524465 | 1.11° C | 65% | 1033 hPa | 0 mm | - | - | - |
| 1777523564 | 0.56° C | 65% | 1033 hPa | 0 mm | - | - | - |
| 1777522664 | -1.11° C | 68% | 1032 hPa | 0 mm | - | - | - |
| 1777521763 | -0.56° C | 68% | 1033 hPa | 0 mm | - | - | - |
| 1777520863 | -0.56° C | 68% | 1033 hPa | 0 mm | - | - | - |
| 1777519962 | -0.56° C | 68% | 1032 hPa | 0 mm | - | - | - |
| 1777519062 | -0.56° C | 67% | 1032 hPa | 0 mm | - | - | - |
| 1777518162 | -0.56° C | 67% | 1032 hPa | 0 mm | - | - | - |
| 1777517261 | -0.56° C | 67% | 1032 hPa | 0 mm | - | - | - |
| 1777516361 | -0.56° C | 67% | 1032 hPa | 0 mm | - | - | - |
| 1777515461 | 0° C | 63% | 1031 hPa | 0 mm | - | - | - |
| 1777514560 | 0° C | 63% | 1032 hPa | 0 mm | - | - | - |
| 1777513660 | 0° C | 63% | 1032 hPa | 0 mm | - | - | - |
| 1777512760 | 0° C | 64% | 1032 hPa | 0 mm | - | - | - |
| 1777511859 | 0.56° C | 60% | 1031 hPa | 0 mm | - | - | - |
| 1777510959 | 0.56° C | 61% | 1032 hPa | 0 mm | - | - | - |
| 1777510059 | 0.56° C | 61% | 1032 hPa | 0 mm | - | - | - |
| 1777509158 | 0.56° C | 61% | 1032 hPa | 0 mm | - | - | - |
| 1777508258 | 1.11° C | 56% | 1031 hPa | 0 mm | - | - | - |
| 1777507358 | 1.11° C | 58% | 1032 hPa | 0 mm | - | - | - |
* Rain latest hour (hover to see other rain measurements)
** Current wind speed in m/s (hover to see current wind gust speed)